createdAt,value
2022-10-10T00:01:37.413Z,64.90
2022-10-10T00:04:06.828Z,65.09
2022-10-10T00:06:34.661Z,65.07
2022-10-10T00:09:06.111Z,65.15
2022-10-10T00:11:35.511Z,65.19
2022-10-10T00:14:04.936Z,65.14
2022-10-10T00:16:33.964Z,65.25
2022-10-10T00:19:01.853Z,65.23
2022-10-10T00:21:31.562Z,65.27
2022-10-10T00:24:01.693Z,65.27
2022-10-10T00:26:30.784Z,65.22
2022-10-10T00:28:58.537Z,65.39
2022-10-10T00:31:27.958Z,65.40
2022-10-10T00:33:58.153Z,65.36
2022-10-10T00:36:25.909Z,65.42
2022-10-10T00:38:53.660Z,65.57
2022-10-10T00:41:22.816Z,65.54
2022-10-10T00:44:12.256Z,65.47
2022-10-10T00:46:41.803Z,65.45
2022-10-10T00:49:24.253Z,65.46
2022-10-10T00:51:57.008Z,65.73
2022-10-10T00:54:29.010Z,65.62
2022-10-10T00:57:09.551Z,65.64
2022-10-10T00:59:42.349Z,65.66
2022-10-10T01:02:10.026Z,65.70
2022-10-10T01:04:45.385Z,65.89
2022-10-10T01:07:24.561Z,66.22
2022-10-10T01:09:56.482Z,66.15
2022-10-10T01:12:42.807Z,66.54
2022-10-10T01:15:16.770Z,66.43
2022-10-10T01:17:48.716Z,66.36
2022-10-10T01:20:39.447Z,66.20
2022-10-10T01:23:38.468Z,65.99
2022-10-10T01:26:24.927Z,65.97
2022-10-10T01:29:23.632Z,65.73
2022-10-10T01:31:56.739Z,65.70
2022-10-10T01:34:44.739Z,65.81
2022-10-10T01:37:25.591Z,66.10
2022-10-10T01:40:30.526Z,66.07
2022-10-10T01:43:09.246Z,66.38
2022-10-10T01:45:37.470Z,66.65
2022-10-10T01:48:07.533Z,66.84
2022-10-10T01:51:00.755Z,66.69
2022-10-10T01:53:40.298Z,66.81
2022-10-10T01:56:07.873Z,66.64
2022-10-10T01:58:57.617Z,66.47
2022-10-10T02:01:36.207Z,66.47
2022-10-10T02:04:12.948Z,66.54
2022-10-10T02:06:56.771Z,66.80
2022-10-10T02:09:33.485Z,67.02
2022-10-10T02:12:04.627Z,67.02
2022-10-10T02:14:57.283Z,67.01
2022-10-10T02:17:27.472Z,67.37
2022-10-10T02:19:59.411Z,67.25
2022-10-10T02:22:29.267Z,67.21
2022-10-10T02:24:57.165Z,66.96
2022-10-10T02:27:47.143Z,67.06
2022-10-10T02:30:19.266Z,67.32
2022-10-10T02:32:48.180Z,67.42
2022-10-10T02:35:25.583Z,67.07
2022-10-10T02:37:55.596Z,66.94
2022-10-10T02:40:31.096Z,66.92
2022-10-10T02:43:04.443Z,67.15
2022-10-10T02:45:34.378Z,67.17
2022-10-10T02:48:03.590Z,67.11
2022-10-10T02:50:33.195Z,67.18
2022-10-10T02:53:00.862Z,67.20
2022-10-10T02:55:28.557Z,67.01
2022-10-10T02:57:56.237Z,67.25
2022-10-10T03:00:23.899Z,67.27
2022-10-10T03:02:51.786Z,67.55
2022-10-10T03:05:21.919Z,67.65
2022-10-10T03:07:51.068Z,67.76
2022-10-10T03:10:18.811Z,68.24
2022-10-10T03:12:46.444Z,68.02
2022-10-10T03:15:14.112Z,68.09
2022-10-10T03:17:42.902Z,67.74
2022-10-10T03:20:11.595Z,67.85
2022-10-10T03:22:39.411Z,67.82
2022-10-10T03:25:07.493Z,67.77
2022-10-10T03:27:35.148Z,67.77
2022-10-10T03:30:06.895Z,67.79
2022-10-10T03:32:34.589Z,67.53
2022-10-10T03:35:02.290Z,67.63
2022-10-10T03:37:29.932Z,67.62
2022-10-10T03:39:57.585Z,67.83
2022-10-10T03:42:26.654Z,67.85
2022-10-10T03:44:54.345Z,67.87
2022-10-10T03:47:21.988Z,67.42
2022-10-10T03:49:51.108Z,67.60
2022-10-10T03:52:18.740Z,67.52
2022-10-10T03:54:46.877Z,67.79
2022-10-10T03:57:16.480Z,67.60
2022-10-10T03:59:44.177Z,67.90
2022-10-10T04:02:11.907Z,67.49
2022-10-10T04:04:39.591Z,67.75
2022-10-10T04:07:07.328Z,67.80
2022-10-10T04:09:35.012Z,67.70
2022-10-10T04:12:06.269Z,67.83
2022-10-10T04:14:33.956Z,68.16
2022-10-10T04:17:03.306Z,67.89
2022-10-10T04:19:32.224Z,68.23
2022-10-10T04:22:00.996Z,68.03
2022-10-10T04:24:28.795Z,67.93
2022-10-10T04:26:56.474Z,68.19
2022-10-10T04:29:24.668Z,67.91
2022-10-10T04:31:55.188Z,68.30
2022-10-10T04:34:22.910Z,68.21
2022-10-10T04:36:50.809Z,67.94
2022-10-10T04:39:20.095Z,68.33
2022-10-10T04:41:50.676Z,68.27
2022-10-10T04:44:18.951Z,68.38
2022-10-10T04:46:46.649Z,68.29
2022-10-10T04:49:14.314Z,68.37
2022-10-10T04:51:41.984Z,68.16
2022-10-10T04:54:11.001Z,67.95
2022-10-10T04:56:40.282Z,68.21
2022-10-10T04:59:10.196Z,68.07
2022-10-10T05:01:37.951Z,68.09
2022-10-10T05:04:06.963Z,68.25
2022-10-10T05:06:34.619Z,68.35
2022-10-10T05:09:02.384Z,68.21
2022-10-10T05:11:30.074Z,68.31
2022-10-10T05:13:59.121Z,68.12
2022-10-10T05:16:26.881Z,68.23
2022-10-10T05:18:54.762Z,68.29
2022-10-10T05:21:22.613Z,68.21
2022-10-10T05:23:50.323Z,68.55
2022-10-10T05:26:21.147Z,68.37
2022-10-10T05:28:49.225Z,68.91
2022-10-10T05:31:17.047Z,68.54
2022-10-10T05:33:44.700Z,68.80
2022-10-10T05:36:14.056Z,68.76
2022-10-10T05:38:42.974Z,68.83
2022-10-10T05:41:10.700Z,68.64
2022-10-10T05:43:38.769Z,68.36
2022-10-10T05:46:06.521Z,68.85
2022-10-10T05:48:34.313Z,68.52
2022-10-10T05:51:02.017Z,68.73
2022-10-10T05:53:31.266Z,68.72
2022-10-10T05:56:02.180Z,68.77
2022-10-10T05:58:31.778Z,69.04
2022-10-10T06:01:05.779Z,68.81
2022-10-10T06:03:35.701Z,69.05
2022-10-10T06:06:04.734Z,68.79
2022-10-10T06:08:32.522Z,69.33
2022-10-10T06:11:08.458Z,69.11
2022-10-10T06:13:38.757Z,69.23
2022-10-10T06:16:07.983Z,69.06
2022-10-10T06:18:37.075Z,69.14
2022-10-10T06:21:08.674Z,69.23
2022-10-10T06:23:37.510Z,69.42
2022-10-10T06:26:05.312Z,69.47
2022-10-10T06:28:35.890Z,69.42
2022-10-10T06:31:08.487Z,69.60
2022-10-10T06:33:37.817Z,69.72
2022-10-10T06:36:07.822Z,69.82
2022-10-10T06:38:41.116Z,69.76
2022-10-10T06:41:10.483Z,69.75
2022-10-10T06:43:39.459Z,69.56
2022-10-10T06:46:08.036Z,69.69
2022-10-10T06:48:36.690Z,69.68
2022-10-10T06:51:09.374Z,69.83
2022-10-10T06:53:37.091Z,69.93
2022-10-10T06:56:07.151Z,69.93
2022-10-10T06:58:35.455Z,70.08
2022-10-10T07:01:05.897Z,70.03
2022-10-10T07:03:33.561Z,70.19
2022-10-10T07:06:03.571Z,70.09
2022-10-10T07:08:32.606Z,70.21
2022-10-10T07:11:00.312Z,70.23
2022-10-10T07:13:29.131Z,70.21
2022-10-10T07:15:57.101Z,70.20
2022-10-10T07:18:25.236Z,70.21
2022-10-10T07:20:57.577Z,70.18
2022-10-10T07:23:28.403Z,70.18
2022-10-10T07:26:04.201Z,70.28
2022-10-10T07:28:32.922Z,70.30
2022-10-10T07:31:08.091Z,70.35
2022-10-10T07:33:40.030Z,70.29
2022-10-10T07:36:09.047Z,70.49
2022-10-10T07:38:38.538Z,70.53
2022-10-10T07:41:10.195Z,70.62
2022-10-10T07:43:38.951Z,70.46
2022-10-10T07:46:12.957Z,70.34
2022-10-10T07:48:40.792Z,70.48
2022-10-10T07:51:10.073Z,70.40
2022-10-10T07:53:39.236Z,70.60
2022-10-10T07:56:10.479Z,70.35
2022-10-10T07:58:39.646Z,70.69
2022-10-10T08:01:11.788Z,70.72
2022-10-10T08:03:40.544Z,70.68
2022-10-10T08:06:13.021Z,70.58
2022-10-10T08:08:50.306Z,70.86
2022-10-10T08:11:21.389Z,70.78
2022-10-10T08:13:51.150Z,70.85
2022-10-10T08:16:20.465Z,70.86
2022-10-10T08:18:49.721Z,70.80
2022-10-10T08:21:18.342Z,70.83
2022-10-10T08:23:47.382Z,70.69
2022-10-10T08:26:18.497Z,70.82
2022-10-10T08:28:49.445Z,70.83
2022-10-10T08:31:21.412Z,70.87
2022-10-10T08:33:51.427Z,70.72
2022-10-10T08:36:24.522Z,70.75
2022-10-10T08:39:02.631Z,70.64
2022-10-10T08:41:47.459Z,70.41
2022-10-10T08:44:43.197Z,69.94
2022-10-10T08:47:18.597Z,69.92
2022-10-10T08:49:52.493Z,69.87
2022-10-10T08:52:30.979Z,69.35
2022-10-10T08:55:03.695Z,69.62
2022-10-10T08:58:02.335Z,69.73
2022-10-10T09:00:36.762Z,69.21
2022-10-10T09:03:32.966Z,68.87
2022-10-10T09:06:39.016Z,68.81
2022-10-10T09:09:48.830Z,66.91
2022-10-10T09:12:39.890Z,67.65
2022-10-10T09:15:29.454Z,67.02
2022-10-10T09:18:09.923Z,67.95
2022-10-10T09:21:23.075Z,68.26
2022-10-10T09:24:04.649Z,68.18
2022-10-10T09:26:40.485Z,67.86
2022-10-10T09:29:33.273Z,66.96
2022-10-10T09:32:09.580Z,63.37
2022-10-10T09:34:49.455Z,64.94
2022-10-10T09:37:46.876Z,64.76
2022-10-10T09:40:34.614Z,64.13
2022-10-10T09:43:18.682Z,63.73
2022-10-10T09:45:53.630Z,62.69
2022-10-10T09:48:28.869Z,64.43
2022-10-10T09:50:57.936Z,64.42
2022-10-10T09:53:27.785Z,64.09
2022-10-10T09:55:55.751Z,62.64
2022-10-10T09:58:44.861Z,60.21
2022-10-10T10:01:18.910Z,63.13
2022-10-10T10:04:17.194Z,62.67
2022-10-10T10:07:18.577Z,60.29
2022-10-10T10:09:53.048Z,61.58
2022-10-10T10:12:27.004Z,62.15
2022-10-10T10:15:03.538Z,61.30
2022-10-10T10:17:31.662Z,61.67
2022-10-10T10:19:59.446Z,60.05
2022-10-10T10:22:33.127Z,60.45
2022-10-10T10:25:32.766Z,60.78
2022-10-10T10:28:21.779Z,60.48
2022-10-10T10:30:55.068Z,60.75
2022-10-10T10:33:38.439Z,60.40
2022-10-10T10:36:41.642Z,59.89
2022-10-10T10:39:38.945Z,58.28
2022-10-10T10:42:21.970Z,59.42
2022-10-10T10:45:13.562Z,58.72
2022-10-10T10:47:58.743Z,58.99
2022-10-10T10:50:38.419Z,58.83
2022-10-10T10:53:34.549Z,58.68
2022-10-10T10:56:13.529Z,58.46
2022-10-10T11:02:11.588Z,58.26
2022-10-10T11:05:36.581Z,56.55
2022-10-10T11:08:21.156Z,57.37
2022-10-10T11:11:18.386Z,57.66
2022-10-10T11:14:02.088Z,57.06
2022-10-10T11:16:51.986Z,57.36
2022-10-10T11:19:25.791Z,56.79
2022-10-10T11:22:07.482Z,54.85
2022-10-10T11:25:00.778Z,56.26
2022-10-10T11:27:43.195Z,56.01
2022-10-10T11:30:26.655Z,56.34
2022-10-10T11:33:21.068Z,56.54
2022-10-10T11:35:58.818Z,56.19
2022-10-10T11:39:03.419Z,56.20
2022-10-10T11:41:44.405Z,56.03
2022-10-10T11:44:18.188Z,55.71
2022-10-10T11:46:56.251Z,55.40
2022-10-10T11:49:44.763Z,54.98
2022-10-10T11:52:32.914Z,55.15
2022-10-10T11:55:27.463Z,54.31
2022-10-10T11:58:28.318Z,54.37
2022-10-10T12:01:13.505Z,54.76
2022-10-10T12:03:41.192Z,54.72
2022-10-10T12:06:35.246Z,54.46
2022-10-10T12:09:08.629Z,53.80
2022-10-10T12:11:59.942Z,53.90
2022-10-10T12:14:31.594Z,53.64
2022-10-10T12:17:01.179Z,53.96
2022-10-10T12:19:29.619Z,53.94
2022-10-10T12:22:30.822Z,53.85
2022-10-10T12:25:10.519Z,53.13
2022-10-10T12:28:05.789Z,53.35
2022-10-10T12:30:33.614Z,53.22
2022-10-10T12:33:01.323Z,53.51
2022-10-10T12:35:36.797Z,53.25
2022-10-10T12:38:13.558Z,52.76
2022-10-10T12:41:07.110Z,52.32
2022-10-10T12:43:40.359Z,52.58
2022-10-10T12:46:16.033Z,52.81
2022-10-10T12:48:45.774Z,52.00
2022-10-10T12:51:23.362Z,52.44
2022-10-10T12:53:58.205Z,52.39
2022-10-10T12:56:44.731Z,51.35
2022-10-10T12:59:21.353Z,50.86
2022-10-10T13:02:02.728Z,51.21
2022-10-10T13:04:32.049Z,51.63
2022-10-10T13:07:04.482Z,51.64
2022-10-10T13:09:35.940Z,51.46
2022-10-10T13:12:07.091Z,51.61
2022-10-10T13:14:41.420Z,51.74
2022-10-10T13:17:33.512Z,51.21
2022-10-10T13:20:02.754Z,51.49
2022-10-10T13:22:34.009Z,51.15
2022-10-10T13:25:05.436Z,51.02
2022-10-10T13:27:35.458Z,50.82
2022-10-10T13:30:08.180Z,50.82
2022-10-10T13:32:37.545Z,50.95
2022-10-10T13:35:15.086Z,50.40
2022-10-10T13:37:46.200Z,49.47
2022-10-10T13:40:16.650Z,49.47
2022-10-10T13:42:48.554Z,50.18
2022-10-10T13:45:29.266Z,50.16
2022-10-10T13:48:02.191Z,49.80
2022-10-10T13:50:44.383Z,49.84
2022-10-10T13:53:27.474Z,49.98
2022-10-10T13:56:11.827Z,48.78
2022-10-10T13:58:56.216Z,49.16
2022-10-10T14:01:35.833Z,48.64
2022-10-10T14:04:15.611Z,49.46
2022-10-10T14:06:55.365Z,49.49
2022-10-10T14:09:34.203Z,49.20
2022-10-10T14:12:04.938Z,49.40
2022-10-10T14:14:43.119Z,49.54
2022-10-10T14:17:12.144Z,49.42
2022-10-10T14:19:39.900Z,49.45
2022-10-10T14:22:08.862Z,49.36
2022-10-10T14:24:36.664Z,49.27
2022-10-10T14:27:19.780Z,49.14
2022-10-10T14:29:48.068Z,48.70
2022-10-10T14:32:17.585Z,49.09
2022-10-10T14:34:46.648Z,48.68
2022-10-10T14:37:24.971Z,48.26
2022-10-10T14:39:54.323Z,48.32
2022-10-10T14:42:23.812Z,48.48
2022-10-10T14:44:52.238Z,48.54
2022-10-10T14:47:24.629Z,48.49
2022-10-10T14:49:58.120Z,47.77
2022-10-10T14:52:25.792Z,48.37
2022-10-10T14:54:53.449Z,48.59
2022-10-10T14:57:23.449Z,48.38
2022-10-10T14:59:51.228Z,48.27
2022-10-10T15:02:22.774Z,48.12
2022-10-10T15:04:52.457Z,48.18
2022-10-10T15:07:20.323Z,47.99
2022-10-10T15:10:31.728Z,47.98
2022-10-10T15:12:42.850Z,47.92
2022-10-10T15:15:13.553Z,48.19
2022-10-10T15:17:42.651Z,48.33
2022-10-10T15:20:13.187Z,48.40
2022-10-10T15:22:42.330Z,48.35
2022-10-10T15:25:11.447Z,48.24
2022-10-10T15:27:39.265Z,48.27
2022-10-10T15:30:08.549Z,48.31
2022-10-10T15:32:41.313Z,48.33
2022-10-10T15:35:19.627Z,48.23
2022-10-10T15:37:48.885Z,48.47
2022-10-10T15:40:21.107Z,48.44
2022-10-10T15:42:50.970Z,48.51
2022-10-10T15:45:43.543Z,48.45
2022-10-10T15:48:07.901Z,48.55
2022-10-10T15:50:42.753Z,48.65
2022-10-10T15:53:14.447Z,48.63
2022-10-10T15:55:47.167Z,48.61
2022-10-10T15:58:17.377Z,48.66
2022-10-10T16:00:47.046Z,48.63
2022-10-10T16:03:19.537Z,48.63
2022-10-10T16:05:47.211Z,48.64
2022-10-10T16:08:18.887Z,48.81
2022-10-10T16:10:46.554Z,48.82
2022-10-10T16:13:17.035Z,48.82
2022-10-10T16:15:44.766Z,48.86
2022-10-10T16:18:12.405Z,48.90
2022-10-10T16:20:40.052Z,49.02
2022-10-10T16:23:10.226Z,49.05
2022-10-10T16:25:37.853Z,49.13
2022-10-10T16:28:05.631Z,49.22
2022-10-10T16:30:34.639Z,49.13
2022-10-10T16:33:02.355Z,49.17
2022-10-10T16:35:30.133Z,49.22
2022-10-10T16:38:01.075Z,49.28
2022-10-10T16:40:30.052Z,49.33
2022-10-10T16:42:57.734Z,49.63
2022-10-10T16:45:26.490Z,49.52
2022-10-10T16:47:54.338Z,49.40
2022-10-10T16:50:22.076Z,49.54
2022-10-10T16:52:49.853Z,49.55
2022-10-10T16:55:17.603Z,49.58
2022-10-10T16:57:45.275Z,49.80
2022-10-10T17:00:13.178Z,49.87
2022-10-10T17:02:43.014Z,49.88
2022-10-10T17:05:10.763Z,49.88
2022-10-10T17:07:39.759Z,49.82
2022-10-10T17:10:08.065Z,50.00
2022-10-10T17:12:35.726Z,50.15
2022-10-10T17:15:04.985Z,50.37
2022-10-10T17:17:35.943Z,50.14
2022-10-10T17:20:07.218Z,50.49
2022-10-10T17:22:36.383Z,50.48
2022-10-10T17:25:04.586Z,50.37
2022-10-10T17:27:35.180Z,50.40
2022-10-10T17:30:06.090Z,50.57
2022-10-10T17:32:33.744Z,50.59
2022-10-10T17:35:02.522Z,50.62
2022-10-10T17:37:30.259Z,50.72
2022-10-10T17:39:57.922Z,51.06
2022-10-10T17:42:26.665Z,51.01
2022-10-10T17:44:57.817Z,51.31
2022-10-10T17:47:28.408Z,51.52
2022-10-10T17:49:56.070Z,51.43
2022-10-10T17:52:24.978Z,51.53
2022-10-10T17:54:54.821Z,51.48
2022-10-10T17:57:22.990Z,51.80
2022-10-10T17:59:51.237Z,52.10
2022-10-10T18:02:19.703Z,52.01
2022-10-10T18:04:47.382Z,52.33
2022-10-10T18:07:19.292Z,52.39
2022-10-10T18:09:51.741Z,52.41
2022-10-10T18:12:20.207Z,52.97
2022-10-10T18:14:47.921Z,53.19
2022-10-10T18:17:15.652Z,53.37
2022-10-10T18:19:43.455Z,53.02
2022-10-10T18:22:11.152Z,53.47
2022-10-10T18:24:38.978Z,52.87
2022-10-10T18:27:06.696Z,52.81
2022-10-10T18:29:34.660Z,52.83
2022-10-10T18:32:02.442Z,52.89
2022-10-10T18:34:30.506Z,53.16
2022-10-10T18:36:58.204Z,53.03
2022-10-10T18:39:32.189Z,53.18
2022-10-10T18:42:00.964Z,53.46
2022-10-10T18:44:29.147Z,53.35
2022-10-10T18:46:56.802Z,53.75
2022-10-10T18:49:26.004Z,53.61
2022-10-10T18:51:53.986Z,53.71
2022-10-10T18:54:21.657Z,53.76
2022-10-10T18:56:51.205Z,53.77
2022-10-10T18:59:24.459Z,54.14
2022-10-10T19:01:53.876Z,53.95
2022-10-10T19:04:22.839Z,54.15
2022-10-10T19:06:56.813Z,53.90
2022-10-10T19:09:26.914Z,54.41
2022-10-10T19:11:56.101Z,54.24
2022-10-10T19:14:23.831Z,54.30
2022-10-10T19:16:51.876Z,54.18
2022-10-10T19:19:21.029Z,54.29
2022-10-10T19:21:51.534Z,54.50
2022-10-10T19:24:23.074Z,54.14
2022-10-10T19:26:56.810Z,54.43
2022-10-10T19:29:26.502Z,54.92
2022-10-10T19:31:56.912Z,55.25
2022-10-10T19:34:24.746Z,54.76
2022-10-10T19:36:55.080Z,54.96
2022-10-10T19:39:22.864Z,54.98
2022-10-10T19:41:50.700Z,55.06
2022-10-10T19:44:18.356Z,55.15
2022-10-10T19:46:46.049Z,55.09
2022-10-10T19:49:13.712Z,55.07
2022-10-10T19:51:41.488Z,55.07
2022-10-10T19:54:09.345Z,55.19
2022-10-10T19:56:37.050Z,55.18
2022-10-10T19:59:06.590Z,55.23
2022-10-10T20:01:34.605Z,55.50
2022-10-10T20:04:02.380Z,55.78
2022-10-10T20:06:31.362Z,55.90
2022-10-10T20:09:00.224Z,56.09
2022-10-10T20:11:28.058Z,56.48
2022-10-10T20:13:59.116Z,56.51
2022-10-10T20:16:27.520Z,56.49
2022-10-10T20:18:58.737Z,56.74
2022-10-10T20:21:32.584Z,57.02
2022-10-10T20:24:06.145Z,56.80
2022-10-10T20:26:35.763Z,57.51
2022-10-10T20:29:04.932Z,58.01
2022-10-10T20:31:36.662Z,58.26
2022-10-10T20:34:06.506Z,57.90
2022-10-10T20:36:36.119Z,58.28
2022-10-10T20:39:08.645Z,57.65
2022-10-10T20:41:39.402Z,57.88
2022-10-10T20:44:10.223Z,57.95
2022-10-10T20:46:40.685Z,58.12
2022-10-10T20:49:18.272Z,58.40
2022-10-10T20:51:52.831Z,57.86
2022-10-10T20:54:24.066Z,57.74
2022-10-10T20:56:53.113Z,58.52
2022-10-10T20:59:24.457Z,58.40
2022-10-10T21:01:52.158Z,59.54
2022-10-10T21:04:20.672Z,59.28
2022-10-10T21:06:48.433Z,58.91
2022-10-10T21:09:16.117Z,58.72
2022-10-10T21:11:48.687Z,59.33
2022-10-10T21:14:19.900Z,59.02
2022-10-10T21:16:51.344Z,58.95
2022-10-10T21:19:19.079Z,59.22
2022-10-10T21:21:46.854Z,59.18
2022-10-10T21:24:16.076Z,59.30
2022-10-10T21:26:46.485Z,59.22
2022-10-10T21:29:14.143Z,59.77
2022-10-10T21:31:44.081Z,58.98
2022-10-10T21:34:16.561Z,59.17
2022-10-10T21:36:46.289Z,59.23
2022-10-10T21:39:15.931Z,59.57
2022-10-10T21:41:43.620Z,60.03
2022-10-10T21:44:12.423Z,60.20
2022-10-10T21:46:40.087Z,60.36
2022-10-10T21:49:12.208Z,60.74
2022-10-10T21:51:45.491Z,60.75
2022-10-10T21:54:15.004Z,60.57
2022-10-10T21:56:42.676Z,61.68
2022-10-10T21:59:11.874Z,61.39
2022-10-10T22:01:39.661Z,61.15
2022-10-10T22:04:10.696Z,60.58
2022-10-10T22:06:39.100Z,61.41
2022-10-10T22:09:06.935Z,61.34
2022-10-10T22:11:35.860Z,61.16
2022-10-10T22:14:05.152Z,61.63
2022-10-10T22:16:34.565Z,62.33
2022-10-10T22:19:05.459Z,63.06
2022-10-10T22:21:35.145Z,62.18
2022-10-10T22:24:07.988Z,62.14
2022-10-10T22:26:36.961Z,62.56
2022-10-10T22:29:06.015Z,62.31
2022-10-10T22:31:38.148Z,61.99
2022-10-10T22:34:07.677Z,62.08
2022-10-10T22:36:36.816Z,62.47
2022-10-10T22:39:08.247Z,62.24
2022-10-10T22:41:35.898Z,63.19
2022-10-10T22:44:05.090Z,62.58
2022-10-10T22:46:34.177Z,62.53
2022-10-10T22:49:03.389Z,63.33
2022-10-10T22:51:31.114Z,63.21
2022-10-10T22:53:58.832Z,63.03
2022-10-10T22:56:26.744Z,62.70
2022-10-10T22:58:55.119Z,62.96
2022-10-10T23:01:25.939Z,62.85
2022-10-10T23:04:00.347Z,63.64
2022-10-10T23:06:32.747Z,63.15
2022-10-10T23:09:00.592Z,63.41
2022-10-10T23:11:29.432Z,62.97
2022-10-10T23:13:58.640Z,63.07
2022-10-10T23:16:26.616Z,63.09
2022-10-10T23:18:54.234Z,63.23
2022-10-10T23:21:23.422Z,63.28
2022-10-10T23:23:52.393Z,63.14
2022-10-10T23:26:20.193Z,63.18
2022-10-10T23:28:50.834Z,63.34
2022-10-10T23:31:18.514Z,63.44
2022-10-10T23:33:46.194Z,63.39
2022-10-10T23:36:15.309Z,63.47
2022-10-10T23:38:45.629Z,63.46
2022-10-10T23:41:14.154Z,63.44
2022-10-10T23:43:41.888Z,63.40
2022-10-10T23:46:11.039Z,63.48
2022-10-10T23:48:38.914Z,63.44
2022-10-10T23:51:06.738Z,63.41
2022-10-10T23:53:35.903Z,63.50
2022-10-10T23:56:05.554Z,63.45
2022-10-10T23:58:35.630Z,63.42
